createdAt,value
2018-01-16T00:00:11.445Z,82.90
2018-01-16T00:02:38.969Z,83.20
2018-01-16T00:05:07.345Z,83.20
2018-01-16T00:07:40.506Z,83.10
2018-01-16T00:10:08.116Z,83.10
2018-01-16T00:12:35.640Z,83.60
2018-01-16T00:15:03.182Z,84.20
2018-01-16T00:17:35.168Z,83.80
2018-01-16T00:20:03.572Z,83.80
2018-01-16T00:22:41.914Z,83.60
2018-01-16T00:25:10.344Z,83.30
2018-01-16T00:27:46.284Z,83.40
2018-01-16T00:30:14.620Z,83.30
2018-01-16T00:32:42.163Z,83.30
2018-01-16T00:35:09.764Z,83.00
2018-01-16T00:37:40.843Z,83.00
2018-01-16T00:40:09.145Z,83.50
2018-01-16T00:42:36.759Z,83.40
2018-01-16T00:45:04.311Z,82.90
2018-01-16T00:47:35.093Z,82.60
2018-01-16T00:50:02.684Z,82.70
2018-01-16T00:52:30.220Z,82.10
2018-01-16T00:54:57.768Z,81.90
2018-01-16T00:57:25.377Z,82.00
2018-01-16T00:59:52.922Z,82.30
2018-01-16T01:02:20.452Z,82.90
2018-01-16T01:04:48.032Z,82.20
2018-01-16T01:07:15.568Z,82.50
2018-01-16T01:09:45.760Z,83.00
2018-01-16T01:12:13.320Z,83.00
2018-01-16T01:14:40.859Z,83.20
2018-01-16T01:17:08.413Z,83.20
2018-01-16T01:19:42.219Z,83.70
2018-01-16T01:22:10.980Z,82.00
2018-01-16T01:24:38.515Z,79.90
2018-01-16T01:27:06.084Z,80.00
2018-01-16T01:29:35.435Z,80.10
2018-01-16T01:32:02.983Z,80.10
2018-01-16T01:34:30.551Z,79.50
2018-01-16T01:36:58.087Z,79.70
2018-01-16T01:39:26.591Z,79.40
2018-01-16T01:41:54.782Z,79.50
2018-01-16T01:44:22.384Z,79.70
2018-01-16T01:46:49.963Z,80.40
2018-01-16T01:49:19.512Z,79.80
2018-01-16T01:51:47.090Z,80.30
2018-01-16T01:54:14.690Z,80.00
2018-01-16T01:56:43.006Z,80.80
2018-01-16T01:59:21.002Z,80.80
2018-01-16T02:01:48.548Z,81.60
2018-01-16T02:04:16.912Z,81.90
2018-01-16T02:06:46.057Z,82.60
2018-01-16T02:09:20.081Z,82.00
2018-01-16T02:11:47.649Z,82.50
2018-01-16T02:14:15.173Z,82.20
2018-01-16T02:16:42.723Z,82.10
2018-01-16T02:19:17.751Z,82.50
2018-01-16T02:21:46.053Z,82.80
2018-01-16T02:24:13.590Z,82.60
2018-01-16T02:26:41.170Z,82.50
2018-01-16T02:29:10.212Z,83.30
2018-01-16T02:31:37.746Z,83.30
2018-01-16T02:34:05.316Z,83.00
2018-01-16T02:36:32.860Z,83.50
2018-01-16T02:39:00.436Z,83.80
2018-01-16T02:41:27.985Z,84.20
2018-01-16T02:43:55.537Z,84.70
2018-01-16T02:46:23.119Z,85.00
2018-01-16T02:48:52.609Z,85.30
2018-01-16T02:51:20.157Z,85.20
2018-01-16T02:53:48.475Z,85.20
2018-01-16T02:56:16.603Z,85.20
2018-01-16T02:58:46.765Z,85.20
2018-01-16T03:01:14.403Z,85.10
2018-01-16T03:03:42.700Z,85.00
2018-01-16T03:06:10.246Z,85.00
2018-01-16T03:08:38.632Z,85.00
2018-01-16T03:11:06.177Z,84.90
2018-01-16T03:13:34.488Z,85.00
2018-01-16T03:16:02.768Z,84.80
2018-01-16T03:18:32.258Z,84.80
2018-01-16T03:20:59.786Z,84.60
2018-01-16T03:23:27.382Z,85.10
2018-01-16T03:25:54.968Z,85.00
2018-01-16T03:28:23.540Z,85.20
2018-01-16T03:30:51.105Z,85.30
2018-01-16T03:33:19.447Z,85.20
2018-01-16T03:35:47.618Z,84.40
2018-01-16T03:38:15.951Z,84.80
2018-01-16T03:40:43.511Z,84.80
2018-01-16T03:43:11.087Z,84.70
2018-01-16T03:45:38.629Z,85.00
2018-01-16T03:48:07.099Z,85.10
2018-01-16T03:50:34.658Z,84.80
2018-01-16T03:53:02.200Z,85.00
2018-01-16T03:55:29.748Z,84.90
2018-01-16T03:57:57.326Z,85.10
2018-01-16T04:00:25.622Z,85.30
2018-01-16T04:02:53.178Z,85.20
2018-01-16T04:05:20.760Z,85.10
2018-01-16T04:07:48.312Z,85.50
2018-01-16T04:10:15.862Z,85.30
2018-01-16T04:12:43.436Z,85.60
2018-01-16T04:15:10.967Z,85.30
2018-01-16T04:17:44.667Z,85.10
2018-01-16T04:20:12.205Z,85.10
2018-01-16T04:22:39.785Z,84.20
2018-01-16T04:25:07.381Z,83.80
2018-01-16T04:27:35.887Z,85.10
2018-01-16T04:30:03.436Z,84.30
2018-01-16T04:32:31.013Z,84.80
2018-01-16T04:34:58.549Z,84.90
2018-01-16T04:37:36.559Z,85.30
2018-01-16T04:40:04.187Z,85.30
2018-01-16T04:42:31.734Z,84.60
2018-01-16T04:44:59.272Z,84.70
2018-01-16T04:47:27.849Z,84.50
2018-01-16T04:49:55.390Z,84.00
2018-01-16T04:52:22.936Z,83.80
2018-01-16T04:54:50.503Z,84.00
2018-01-16T04:57:22.286Z,83.80
2018-01-16T04:59:49.889Z,83.70
2018-01-16T05:02:17.427Z,83.80
2018-01-16T05:04:44.965Z,82.60
2018-01-16T05:07:12.549Z,82.20
2018-01-16T05:09:40.103Z,82.60
2018-01-16T05:12:07.631Z,82.70
2018-01-16T05:14:35.731Z,82.30
2018-01-16T05:17:03.275Z,82.80
2018-01-16T05:19:30.821Z,83.30
2018-01-16T05:21:58.400Z,83.30
2018-01-16T05:24:26.533Z,83.50
2018-01-16T05:26:54.082Z,83.50
2018-01-16T05:29:23.009Z,84.30
2018-01-16T05:31:50.610Z,83.90
2018-01-16T05:34:18.150Z,84.00
2018-01-16T05:36:47.051Z,83.90
2018-01-16T05:39:25.264Z,84.00
2018-01-16T05:41:54.031Z,83.90
2018-01-16T05:44:22.831Z,83.40
2018-01-16T05:46:51.119Z,83.10
2018-01-16T05:49:26.895Z,83.00
2018-01-16T05:51:54.441Z,83.60
2018-01-16T05:54:22.795Z,83.50
2018-01-16T05:56:51.167Z,84.00
2018-01-16T05:59:20.707Z,83.90
2018-01-16T06:01:48.255Z,83.10
2018-01-16T06:04:16.662Z,82.70
2018-01-16T06:06:44.507Z,82.20
2018-01-16T06:09:12.998Z,82.40
2018-01-16T06:11:40.600Z,82.60
2018-01-16T06:14:08.142Z,81.90
2018-01-16T06:16:36.449Z,81.40
2018-01-16T06:19:09.821Z,81.30
2018-01-16T06:21:37.370Z,81.20
2018-01-16T06:24:04.947Z,80.90
2018-01-16T06:26:33.293Z,81.50
2018-01-16T06:29:02.389Z,81.50
2018-01-16T06:31:29.908Z,81.10
2018-01-16T06:33:57.510Z,81.60
2018-01-16T06:36:25.085Z,82.10
2018-01-16T06:39:01.791Z,82.70
2018-01-16T06:41:29.358Z,82.20
2018-01-16T06:43:58.200Z,83.30
2018-01-16T06:46:25.744Z,82.90
2018-01-16T06:48:54.320Z,83.10
2018-01-16T06:51:21.880Z,83.90
2018-01-16T06:53:49.450Z,83.70
2018-01-16T06:56:17.036Z,83.90
2018-01-16T06:58:55.128Z,84.40
2018-01-16T07:01:22.702Z,84.30
2018-01-16T07:03:51.139Z,84.50
2018-01-16T07:06:18.677Z,84.30
2018-01-16T07:08:51.776Z,83.90
2018-01-16T07:11:19.311Z,84.00
2018-01-16T07:13:46.865Z,84.00
2018-01-16T07:16:15.205Z,83.30
2018-01-16T07:18:42.741Z,83.30
2018-01-16T07:21:10.279Z,83.50
2018-01-16T07:23:37.837Z,83.70
2018-01-16T07:26:06.125Z,84.00
2018-01-16T07:28:34.650Z,84.20
2018-01-16T07:31:02.812Z,84.60
2018-01-16T07:33:30.386Z,84.40
2018-01-16T07:35:58.010Z,84.10
2018-01-16T07:38:30.756Z,83.90
2018-01-16T07:40:58.330Z,83.80
2018-01-16T07:43:26.648Z,83.20
2018-01-16T07:45:54.974Z,83.30
2018-01-16T07:48:22.554Z,83.30
2018-01-16T07:53:18.472Z,83.50
2018-01-16T07:55:46.616Z,83.80
2018-01-16T07:58:16.144Z,83.50
2018-01-16T08:00:43.689Z,83.00
2018-01-16T08:03:11.739Z,83.20
2018-01-16T08:05:39.307Z,82.80
2018-01-16T08:08:08.162Z,81.90
2018-01-16T08:10:36.579Z,78.30
2018-01-16T08:13:04.199Z,78.20
2018-01-16T08:15:31.723Z,79.50
2018-01-16T08:17:59.233Z,81.80
2018-01-16T08:20:26.797Z,82.40
2018-01-16T08:22:54.324Z,82.60
2018-01-16T08:25:21.858Z,83.10
2018-01-16T08:27:53.872Z,83.80
2018-01-16T08:30:22.274Z,83.80
2018-01-16T08:32:50.564Z,84.20
2018-01-16T08:35:18.163Z,84.20
2018-01-16T08:37:51.882Z,82.60
2018-01-16T08:40:20.160Z,83.30
2018-01-16T08:42:47.707Z,84.80
2018-01-16T08:45:15.227Z,85.20
2018-01-16T08:47:44.739Z,85.60
2018-01-16T08:50:12.287Z,85.80
2018-01-16T08:52:39.861Z,85.90
2018-01-16T08:55:07.385Z,85.90
2018-01-16T08:57:36.905Z,86.30
2018-01-16T09:00:05.219Z,86.40
2018-01-16T09:02:32.758Z,86.20
2018-01-16T09:05:01.062Z,85.80
2018-01-16T09:07:28.652Z,85.80
2018-01-16T09:09:56.222Z,85.30
2018-01-16T09:12:23.754Z,85.30
2018-01-16T09:14:51.330Z,85.50
2018-01-16T09:17:18.854Z,85.70
2018-01-16T09:19:46.390Z,85.60
2018-01-16T09:22:14.751Z,84.90
2018-01-16T09:24:42.353Z,84.90
2018-01-16T09:27:09.907Z,85.30
2018-01-16T09:29:47.997Z,85.40
2018-01-16T09:32:16.335Z,84.90
2018-01-16T09:34:43.887Z,85.40
2018-01-16T09:37:11.990Z,85.30
2018-01-16T09:39:39.526Z,85.10
2018-01-16T09:42:07.057Z,84.60
2018-01-16T09:44:36.176Z,84.70
2018-01-16T09:47:03.740Z,84.40
2018-01-16T09:49:32.040Z,84.00
2018-01-16T09:51:59.638Z,84.00
2018-01-16T09:54:27.967Z,83.80
2018-01-16T09:56:56.150Z,83.70
2018-01-16T09:59:27.880Z,84.10
2018-01-16T10:01:55.433Z,83.90
2018-01-16T10:04:23.765Z,82.30
2018-01-16T10:06:51.306Z,82.20
2018-01-16T10:09:20.835Z,81.70
2018-01-16T10:11:48.413Z,81.40
2018-01-16T10:14:15.961Z,81.60
2018-01-16T10:16:44.418Z,80.70
2018-01-16T10:19:18.804Z,79.90
2018-01-16T10:21:48.117Z,79.30
2018-01-16T10:24:15.645Z,79.20
2018-01-16T10:26:43.260Z,77.60
2018-01-16T10:29:14.519Z,77.10
2018-01-16T10:31:42.103Z,76.10
2018-01-16T10:34:09.654Z,76.60
2018-01-16T10:36:37.174Z,76.00
2018-01-16T10:39:11.546Z,75.50
2018-01-16T10:41:39.087Z,75.20
2018-01-16T10:44:06.617Z,74.40
2018-01-16T10:46:34.240Z,74.90
2018-01-16T10:49:02.357Z,74.80
2018-01-16T10:51:29.908Z,74.80
2018-01-16T10:53:57.467Z,75.20
2018-01-16T10:56:24.991Z,75.40
2018-01-16T10:58:55.725Z,75.10
2018-01-16T11:01:23.333Z,75.30
2018-01-16T11:03:50.884Z,75.80
2018-01-16T11:06:19.189Z,75.00
2018-01-16T11:08:52.919Z,75.00
2018-01-16T11:11:20.477Z,75.40
2018-01-16T11:13:48.032Z,75.70
2018-01-16T11:16:15.604Z,75.50
2018-01-16T11:18:43.790Z,76.00
2018-01-16T11:21:11.327Z,75.80
2018-01-16T11:23:38.946Z,75.80
2018-01-16T11:26:07.271Z,75.00
2018-01-16T11:28:34.810Z,75.00
2018-01-16T11:31:02.370Z,75.30
2018-01-16T11:33:30.518Z,74.70
2018-01-16T11:35:58.051Z,74.40
2018-01-16T11:38:26.627Z,74.10
2018-01-16T11:40:54.167Z,74.00
2018-01-16T11:43:22.341Z,74.00
2018-01-16T11:45:49.917Z,73.80
2018-01-16T11:48:17.480Z,74.10
2018-01-16T11:50:46.303Z,73.60
2018-01-16T11:53:13.846Z,73.10
2018-01-16T11:55:41.393Z,72.70
2018-01-16T11:58:10.889Z,72.00
2018-01-16T12:00:38.428Z,71.60
2018-01-16T12:03:06.008Z,71.30
2018-01-16T12:05:33.560Z,70.20
2018-01-16T12:08:13.913Z,71.00
2018-01-16T12:10:44.444Z,70.50
2018-01-16T12:13:12.774Z,69.30
2018-01-16T12:15:40.853Z,69.30
2018-01-16T12:18:08.393Z,68.90
2018-01-16T12:20:35.937Z,70.40
2018-01-16T12:23:03.473Z,66.10
2018-01-16T12:25:31.793Z,70.10
2018-01-16T12:28:00.189Z,70.10
2018-01-16T12:30:28.489Z,71.80
2018-01-16T12:32:56.620Z,74.30
2018-01-16T12:35:24.173Z,76.00
2018-01-16T12:37:52.207Z,77.00
2018-01-16T12:40:19.788Z,75.70
2018-01-16T12:42:48.176Z,76.10
2018-01-16T12:45:17.336Z,77.40
2018-01-16T12:47:57.454Z,77.40
2018-01-16T12:50:24.988Z,78.50
2018-01-16T12:52:53.415Z,80.10
2018-01-16T12:55:21.006Z,80.00
2018-01-16T12:57:49.462Z,79.50
2018-01-16T13:00:17.019Z,79.00
2018-01-16T13:02:44.561Z,80.30
2018-01-16T13:05:12.105Z,80.30
2018-01-16T13:07:42.349Z,81.00
2018-01-16T13:10:12.183Z,81.10
2018-01-16T13:12:39.731Z,81.00
2018-01-16T13:15:07.263Z,80.30
2018-01-16T13:17:46.681Z,79.90
2018-01-16T13:20:14.225Z,79.80
2018-01-16T13:22:41.754Z,79.90
2018-01-16T13:25:09.312Z,78.50
2018-01-16T13:27:42.810Z,78.60
2018-01-16T13:30:10.396Z,78.70
2018-01-16T13:32:38.027Z,78.80
2018-01-16T13:35:05.572Z,78.20
2018-01-16T13:37:33.092Z,77.40
2018-01-16T13:40:00.693Z,77.30
2018-01-16T13:42:29.027Z,77.40
2018-01-16T13:44:56.601Z,77.40
2018-01-16T13:47:25.077Z,76.90
2018-01-16T13:49:52.625Z,76.40
2018-01-16T13:52:21.085Z,77.20
2018-01-16T13:54:48.643Z,75.30
2018-01-16T13:57:16.171Z,75.70
2018-01-16T13:59:43.741Z,74.90
2018-01-16T14:02:12.044Z,74.80
2018-01-16T14:04:39.582Z,74.00
2018-01-16T14:07:07.900Z,72.20
2018-01-16T14:09:37.424Z,71.40
2018-01-16T14:12:04.966Z,73.30
2018-01-16T14:14:32.534Z,71.30
2018-01-16T14:17:00.098Z,71.30
2018-01-16T14:19:28.614Z,70.80
2018-01-16T14:21:56.154Z,71.30
2018-01-16T14:24:23.695Z,70.90
2018-01-16T14:26:51.230Z,70.40
2018-01-16T14:29:19.785Z,69.60
2018-01-16T14:31:47.319Z,69.60
2018-01-16T14:34:14.899Z,69.20
2018-01-16T14:36:42.548Z,70.10
2018-01-16T14:39:11.082Z,67.60
2018-01-16T14:41:39.391Z,67.30
2018-01-16T14:44:06.945Z,67.20
2018-01-16T14:46:34.550Z,67.90
2018-01-16T14:49:26.613Z,67.10
2018-01-16T14:51:54.942Z,68.00
2018-01-16T14:54:22.495Z,67.90
2018-01-16T14:56:50.072Z,68.30
2018-01-16T14:59:18.626Z,67.50
2018-01-16T15:01:46.736Z,68.20
2018-01-16T15:04:20.140Z,67.80
2018-01-16T15:06:47.690Z,67.80
2018-01-16T15:09:17.159Z,68.30
2018-01-16T15:11:44.733Z,68.80
2018-01-16T15:14:12.281Z,68.70
2018-01-16T15:16:39.808Z,69.80
2018-01-16T15:19:08.394Z,70.00
2018-01-16T15:21:35.941Z,70.70
2018-01-16T15:24:03.481Z,70.90
2018-01-16T15:26:31.055Z,71.70
2018-01-16T15:29:00.597Z,72.30
2018-01-16T15:31:28.161Z,71.20
2018-01-16T15:33:55.741Z,72.30
2018-01-16T15:36:24.049Z,72.30
2018-01-16T15:38:51.635Z,72.30
2018-01-16T15:41:19.492Z,72.20
2018-01-16T15:43:47.076Z,72.70
2018-01-16T15:46:14.620Z,72.40
2018-01-16T15:48:42.196Z,71.70
2018-01-16T15:51:09.730Z,72.10
2018-01-16T15:53:37.269Z,70.90
2018-01-16T15:56:05.619Z,69.90
2018-01-16T15:58:34.169Z,69.90
2018-01-16T16:01:01.703Z,70.00
2018-01-16T16:03:29.298Z,70.90
2018-01-16T16:05:56.898Z,70.60
2018-01-16T16:08:26.455Z,71.90
2018-01-16T16:10:54.022Z,71.20
2018-01-16T16:13:22.469Z,71.70
2018-01-16T16:15:50.875Z,71.60
2018-01-16T16:18:19.376Z,71.60
2018-01-16T16:20:47.567Z,72.00
2018-01-16T16:23:15.122Z,72.20
2018-01-16T16:25:42.674Z,72.90
2018-01-16T16:28:10.244Z,72.40
2018-01-16T16:30:37.796Z,72.80
2018-01-16T16:33:05.364Z,72.50
2018-01-16T16:35:32.936Z,74.80
2018-01-16T16:38:02.508Z,74.60
2018-01-16T16:40:31.015Z,75.70
2018-01-16T16:42:58.736Z,75.00
2018-01-16T16:45:28.173Z,75.40
2018-01-16T16:48:00.357Z,75.40
2018-01-16T16:50:27.929Z,77.70
2018-01-16T16:52:56.211Z,78.60
2018-01-16T16:55:23.791Z,79.20
2018-01-16T16:57:51.329Z,80.60
2018-01-16T17:00:19.348Z,81.40
2018-01-16T17:02:48.344Z,80.50
2018-01-16T17:05:16.644Z,80.20
2018-01-16T17:07:44.308Z,80.20
2018-01-16T17:10:11.898Z,80.30
2018-01-16T17:12:39.486Z,81.10
2018-01-16T17:15:07.830Z,80.60
2018-01-16T17:17:39.874Z,80.60
2018-01-16T17:20:07.421Z,81.20
2018-01-16T17:22:34.981Z,81.00
2018-01-16T17:25:02.581Z,81.00
2018-01-16T17:27:30.117Z,80.10
2018-01-16T17:29:57.647Z,81.70
2018-01-16T17:32:26.035Z,81.60
2018-01-16T17:34:54.347Z,81.50
2018-01-16T17:37:21.917Z,81.40
2018-01-16T17:39:49.473Z,81.90
2018-01-16T17:42:17.042Z,81.60
2018-01-16T17:44:44.641Z,81.70
2018-01-16T17:47:12.210Z,82.30
2018-01-16T17:49:41.772Z,82.40
2018-01-16T17:52:09.330Z,81.90
2018-01-16T17:54:36.866Z,81.70
2018-01-16T17:57:05.780Z,81.20
2018-01-16T17:59:34.300Z,81.20
2018-01-16T18:02:01.843Z,81.20
2018-01-16T18:04:29.511Z,81.00
2018-01-16T18:06:57.137Z,80.60
2018-01-16T18:09:29.349Z,80.40
2018-01-16T18:11:57.711Z,79.80
2018-01-16T18:14:25.251Z,79.50
2018-01-16T18:16:52.831Z,79.60
2018-01-16T18:19:28.932Z,79.40
2018-01-16T18:21:56.477Z,79.30
2018-01-16T18:24:24.032Z,79.30
2018-01-16T18:26:53.214Z,79.90
2018-01-16T18:29:25.368Z,79.90
2018-01-16T18:31:52.926Z,80.20
2018-01-16T18:34:21.354Z,79.80
2018-01-16T18:36:48.918Z,80.20
2018-01-16T18:39:17.646Z,80.10
2018-01-16T18:41:45.998Z,80.60
2018-01-16T18:44:13.542Z,80.60
2018-01-16T18:46:41.116Z,80.40
2018-01-16T18:49:08.661Z,80.50
2018-01-16T18:51:36.207Z,80.40
2018-01-16T18:54:03.797Z,80.20
2018-01-16T18:56:31.385Z,80.50
2018-01-16T18:59:02.569Z,80.10
2018-01-16T19:01:30.147Z,80.60
2018-01-16T19:03:57.737Z,80.20
2018-01-16T19:06:25.274Z,80.70
2018-01-16T19:08:56.829Z,80.30
2018-01-16T19:11:24.396Z,81.20
2018-01-16T19:13:52.660Z,80.50
2018-01-16T19:16:20.227Z,80.70
2018-01-16T19:18:48.473Z,81.30
2018-01-16T19:21:16.758Z,81.20
2018-01-16T19:23:45.078Z,80.90
2018-01-16T19:26:12.617Z,80.70
2018-01-16T19:28:40.180Z,81.10
2018-01-16T19:31:07.768Z,81.30
2018-01-16T19:33:35.367Z,81.00
2018-01-16T19:36:03.684Z,81.00
2018-01-16T19:38:32.997Z,80.90
2018-01-16T19:41:01.292Z,81.10
2018-01-16T19:43:28.873Z,80.80
2018-01-16T19:45:57.244Z,80.40
2018-01-16T19:48:27.541Z,80.30
2018-01-16T19:50:55.544Z,80.50
2018-01-16T19:53:23.120Z,80.10
2018-01-16T19:55:50.670Z,80.30
2018-01-16T19:58:18.242Z,79.90
2018-01-16T20:00:45.820Z,79.90
2018-01-16T20:03:14.214Z,79.80
2018-01-16T20:05:41.799Z,79.80
2018-01-16T20:08:09.378Z,80.00
2018-01-16T20:10:36.922Z,79.90
2018-01-16T20:13:04.505Z,79.20
2018-01-16T20:15:32.121Z,79.10
2018-01-16T20:18:00.435Z,78.50
2018-01-16T20:20:28.460Z,78.40
2018-01-16T20:22:56.171Z,77.60
2018-01-16T20:25:23.816Z,78.10
2018-01-16T20:27:56.663Z,78.10
2018-01-16T20:30:29.627Z,78.10
2018-01-16T20:32:57.269Z,77.80
2018-01-16T20:35:24.825Z,77.90
2018-01-16T20:38:00.964Z,77.00
2018-01-16T20:40:28.518Z,77.90
2018-01-16T20:42:56.056Z,79.70
2018-01-16T20:45:23.678Z,80.60
2018-01-16T20:47:53.181Z,80.40
2018-01-16T20:50:20.754Z,80.40
2018-01-16T20:52:48.305Z,80.70
2018-01-16T20:55:15.880Z,80.40
2018-01-16T20:57:45.414Z,80.50
2018-01-16T21:00:13.065Z,81.00
2018-01-16T21:02:41.793Z,80.90
2018-01-16T21:05:10.721Z,81.00
2018-01-16T21:07:57.883Z,81.00
2018-01-16T21:10:26.533Z,81.20
2018-01-16T21:12:54.076Z,81.00
2018-01-16T21:15:21.653Z,81.70
2018-01-16T21:17:51.178Z,81.70
2018-01-16T21:20:18.742Z,81.80
2018-01-16T21:22:46.365Z,82.00
2018-01-16T21:25:13.938Z,81.90
2018-01-16T21:27:43.425Z,82.20
2018-01-16T21:30:11.040Z,82.50
2018-01-16T21:32:38.590Z,80.50
2018-01-16T21:35:06.774Z,80.90
2018-01-16T21:37:41.299Z,81.50
2018-01-16T21:40:08.862Z,81.30
2018-01-16T21:42:36.802Z,81.40
2018-01-16T21:45:04.393Z,81.20
2018-01-16T21:47:32.985Z,81.80
2018-01-16T21:50:02.597Z,81.80
2018-01-16T21:52:31.739Z,81.80
2018-01-16T21:55:02.003Z,81.50
2018-01-16T21:57:33.565Z,81.00
2018-01-16T22:00:01.437Z,81.20
2018-01-16T22:02:29.819Z,81.20
2018-01-16T22:04:57.436Z,81.40
2018-01-16T22:07:27.967Z,81.20
2018-01-16T22:09:55.538Z,81.40
2018-01-16T22:12:23.103Z,81.50
2018-01-16T22:14:50.646Z,81.10
2018-01-16T22:17:18.969Z,81.10
2018-01-16T22:19:48.038Z,81.40
2018-01-16T22:22:19.668Z,81.40
2018-01-16T22:24:47.220Z,82.10
2018-01-16T22:27:14.806Z,81.60
2018-01-16T22:29:43.164Z,81.50
2018-01-16T22:32:11.493Z,81.30
2018-01-16T22:34:39.061Z,81.20
2018-01-16T22:37:06.633Z,81.00
2018-01-16T22:39:36.175Z,80.80
2018-01-16T22:42:05.363Z,80.60
2018-01-16T22:44:32.915Z,80.30
2018-01-16T22:47:00.474Z,80.80
2018-01-16T22:49:33.916Z,80.70
2018-01-16T22:52:02.254Z,80.00
2018-01-16T22:54:29.794Z,79.90
2018-01-16T22:56:57.330Z,80.20
2018-01-16T22:59:45.360Z,79.60
2018-01-16T23:02:13.670Z,79.60
2018-01-16T23:04:41.212Z,79.50
2018-01-16T23:07:08.792Z,79.60
2018-01-16T23:09:39.140Z,79.60
2018-01-16T23:12:06.747Z,79.60
2018-01-16T23:14:35.112Z,79.90
2018-01-16T23:17:02.658Z,79.80
2018-01-16T23:19:30.189Z,80.60
2018-01-16T23:21:57.796Z,79.30
2018-01-16T23:24:25.357Z,79.70
2018-01-16T23:26:53.003Z,79.20
2018-01-16T23:29:23.288Z,79.70
2018-01-16T23:31:52.252Z,79.00
2018-01-16T23:34:21.280Z,79.60
2018-01-16T23:36:48.822Z,78.80
2018-01-16T23:39:16.395Z,78.70
2018-01-16T23:41:43.942Z,78.70
2018-01-16T23:44:12.266Z,79.60
2018-01-16T23:46:40.742Z,79.40
2018-01-16T23:49:08.310Z,79.90
2018-01-16T23:51:35.832Z,80.00
2018-01-16T23:54:03.454Z,80.10
2018-01-16T23:56:30.991Z,80.60
2018-01-16T23:58:59.555Z,80.10
